Willoughby, OH

8:11 PM EDT on August 27, 2014 (GMT -0400)
Ravenna | Change Station
CLOSE
Current Station
Airport
Location: Ravenna,
Elevation: 1198 ft
Nearby Weather Stations

Elev 1198 ft 41.21 °N, 81.25 °W | Updated 11 minutes ago

Partly Cloudy
Partly Cloudy
68 °F
Feels Like 68 °F
N
4
Wind Variable Wind from North
Gusts 10 mph

Today
High -- | Low -- °F
--% Chance of Precip.
Yesterday
High -- | Low -- °F
Precip. -- in
6:46 AM 8:06 PM
Waxing Crescent, 5% visible
Pressure 30.07 in
Visibility 10.0 miles
Clouds
Dew Point 64 °F
Humidity 88%
Rainfall 0.00 in
Snow Depth Not available.
UV Not available.
Pollen 8.80 out of 12
Ozone Good
PM2.5 Moderate
Flu Activity Not available.
METAR KPOV 280000Z AUTO 35003KT 10SM 20/18 A3007 RMK AO2 T01980177 10276 20198

More Conditions Fewer Conditions

Pressure 30.07 in
Visibility 10.0 miles
Clouds
Dew Point 64 °F
Humidity 88%
Rainfall 0.00 in
Snow Depth Not available.
UV Not available.
Pollen 8.80 out of 12
Ozone Good
PM2.5 Moderate
Flu Activity Not available.
METAR KPOV 280000Z AUTO 35003KT 10SM 20/18 A3007 RMK AO2 T01980177 10276 20198

More Conditions Fewer Conditions

10-Day Weather Forecast

Almanac

Astronomy

Aug. 27, 2014 Rise Set
Actual Time 6:46 AM EDT 8:06 PM EDT
Civil Twilight 6:17 AM EDT 8:35 PM EDT
Nautical Twilight 5:42 AM EDT 9:10 PM EDT
Astronomical Twilight 5:06 AM EDT 9:46 PM EDT
Moon 8:43 AM EDT (8/27) 8:55 PM EDT (8/27)
Length of Visible Light 14h 18m
Length of Day
13h 20m
Tomorrow will be 2m 39s shorter.
Waxing Crescent, 5% of the Moon is Illuminated
Today
Waxing Crescent
Sep 2
First Quarter
Sep 8
Full
Sep 15
Last Quarter
Sep 24
New

Today's Extremes

State Highs State Lows

Community

WunderPhotos

Upload Photos

1,747,830 photos uploaded!

Nearby

Air Quality

  Air Quality AQ Index Pollutant
Yesterday Moderate
OZONE
Yesterday Good
PM10
Current Moderate
PM2.5
Current Good
OZONE
Wednesday Moderate
PM2.5
Wednesday Good
OZONE
Thursday Moderate
PM2.5
Thursday Good
OZONE
Friday Moderate
PM2.5
Friday Moderate
OZONE
Saturday Moderate
PM2.5
Saturday Moderate
OZONE
Sunday Moderate
PM2.5
Sunday Good
OZONE

Snow Depth

Station Depth Elevation
No new snow has been reported.

Earthquake Activity

City Distance Mag. Time & Date
No recent earthquake activity has been reported nearby.
Minimum magnitude displayed is 2.5.

Coastal Water Temperatures

Place Temperature
Fairport, OH 75.9 °F
Cleveland, OH 73.9 °F

Nearby Weather Stations